sensor_id;sensor_type;location;lat;lon;timestamp;temperature;humidity
65046;DHT22;54657;52.022;5.534;2024-02-21T00:00:45;10.80;99.60
65046;DHT22;54657;52.022;5.534;2024-02-21T00:03:11;10.80;99.50
65046;DHT22;54657;52.022;5.534;2024-02-21T00:05:36;10.80;99.50
65046;DHT22;54657;52.022;5.534;2024-02-21T00:08:02;10.70;99.50
65046;DHT22;54657;52.022;5.534;2024-02-21T00:10:28;10.70;99.50
65046;DHT22;54657;52.022;5.534;2024-02-21T00:12:54;10.70;99.50
65046;DHT22;54657;52.022;5.534;2024-02-21T00:15:20;10.70;99.60
65046;DHT22;54657;52.022;5.534;2024-02-21T00:17:46;10.70;99.60
65046;DHT22;54657;52.022;5.534;2024-02-21T00:20:12;10.70;99.60
65046;DHT22;54657;52.022;5.534;2024-02-21T00:22:37;10.70;99.60
65046;DHT22;54657;52.022;5.534;2024-02-21T00:25:03;10.70;99.60
65046;DHT22;54657;52.022;5.534;2024-02-21T00:27:29;10.70;99.60
65046;DHT22;54657;52.022;5.534;2024-02-21T00:29:54;10.70;99.60
65046;DHT22;54657;52.022;5.534;2024-02-21T00:32:20;10.70;99.60
65046;DHT22;54657;52.022;5.534;2024-02-21T00:34:46;10.60;99.70
65046;DHT22;54657;52.022;5.534;2024-02-21T00:37:11;10.60;99.70
65046;DHT22;54657;52.022;5.534;2024-02-21T00:39:37;10.60;99.70
65046;DHT22;54657;52.022;5.534;2024-02-21T00:42:03;10.70;99.70
65046;DHT22;54657;52.022;5.534;2024-02-21T00:44:28;10.70;99.60
65046;DHT22;54657;52.022;5.534;2024-02-21T00:46:54;10.60;99.60
65046;DHT22;54657;52.022;5.534;2024-02-21T00:49:19;10.60;99.60
65046;DHT22;54657;52.022;5.534;2024-02-21T00:51:45;10.70;99.70
65046;DHT22;54657;52.022;5.534;2024-02-21T00:54:10;10.60;99.60
65046;DHT22;54657;52.022;5.534;2024-02-21T00:56:36;10.60;99.60
65046;DHT22;54657;52.022;5.534;2024-02-21T00:59:01;10.60;99.60
65046;DHT22;54657;52.022;5.534;2024-02-21T01:01:27;10.70;99.70
65046;DHT22;54657;52.022;5.534;2024-02-21T01:03:53;10.70;99.70
65046;DHT22;54657;52.022;5.534;2024-02-21T01:06:19;10.70;99.60
65046;DHT22;54657;52.022;5.534;2024-02-21T01:08:49;10.60;99.60
65046;DHT22;54657;52.022;5.534;2024-02-21T01:11:15;10.60;99.60
65046;DHT22;54657;52.022;5.534;2024-02-21T01:13:41;10.60;99.60
65046;DHT22;54657;52.022;5.534;2024-02-21T01:16:07;10.60;99.70
65046;DHT22;54657;52.022;5.534;2024-02-21T01:18:33;10.60;99.70
65046;DHT22;54657;52.022;5.534;2024-02-21T01:20:59;10.60;99.70
65046;DHT22;54657;52.022;5.534;2024-02-21T01:23:25;10.60;99.70
65046;DHT22;54657;52.022;5.534;2024-02-21T01:25:51;10.70;99.70
65046;DHT22;54657;52.022;5.534;2024-02-21T01:28:17;10.60;99.70
65046;DHT22;54657;52.022;5.534;2024-02-21T01:30:43;10.70;99.60
65046;DHT22;54657;52.022;5.534;2024-02-21T01:33:08;10.70;99.60
65046;DHT22;54657;52.022;5.534;2024-02-21T01:35:35;10.70;99.70
65046;DHT22;54657;52.022;5.534;2024-02-21T01:38:01;10.60;99.70
65046;DHT22;54657;52.022;5.534;2024-02-21T01:40:26;10.60;99.70
65046;DHT22;54657;52.022;5.534;2024-02-21T01:42:55;10.60;99.60
65046;DHT22;54657;52.022;5.534;2024-02-21T01:45:20;10.60;99.60
65046;DHT22;54657;52.022;5.534;2024-02-21T01:47:46;10.60;99.60
65046;DHT22;54657;52.022;5.534;2024-02-21T01:50:13;10.60;99.60
65046;DHT22;54657;52.022;5.534;2024-02-21T01:52:40;10.60;99.60
65046;DHT22;54657;52.022;5.534;2024-02-21T01:55:06;10.70;99.70
65046;DHT22;54657;52.022;5.534;2024-02-21T01:57:32;10.60;99.60
65046;DHT22;54657;52.022;5.534;2024-02-21T01:59:58;10.70;99.60
65046;DHT22;54657;52.022;5.534;2024-02-21T02:02:24;10.70;99.60
65046;DHT22;54657;52.022;5.534;2024-02-21T02:04:50;10.70;99.50
65046;DHT22;54657;52.022;5.534;2024-02-21T02:07:17;10.70;99.60
65046;DHT22;54657;52.022;5.534;2024-02-21T02:09:42;10.70;99.60
65046;DHT22;54657;52.022;5.534;2024-02-21T02:12:08;10.70;99.60
65046;DHT22;54657;52.022;5.534;2024-02-21T02:14:34;10.70;99.60
65046;DHT22;54657;52.022;5.534;2024-02-21T02:16:59;10.70;99.60
65046;DHT22;54657;52.022;5.534;2024-02-21T02:19:25;10.70;99.60
65046;DHT22;54657;52.022;5.534;2024-02-21T02:21:56;10.70;99.60
65046;DHT22;54657;52.022;5.534;2024-02-21T02:24:25;10.70;99.60
65046;DHT22;54657;52.022;5.534;2024-02-21T02:26:51;10.70;99.60
65046;DHT22;54657;52.022;5.534;2024-02-21T02:29:17;10.70;99.60
65046;DHT22;54657;52.022;5.534;2024-02-21T02:31:42;10.70;99.60
65046;DHT22;54657;52.022;5.534;2024-02-21T02:34:08;10.70;99.60
65046;DHT22;54657;52.022;5.534;2024-02-21T02:36:35;10.60;99.60
65046;DHT22;54657;52.022;5.534;2024-02-21T02:39:01;10.60;99.60
65046;DHT22;54657;52.022;5.534;2024-02-21T02:41:26;10.60;99.60
65046;DHT22;54657;52.022;5.534;2024-02-21T02:43:52;10.60;99.60
65046;DHT22;54657;52.022;5.534;2024-02-21T02:46:17;10.60;99.60
65046;DHT22;54657;52.022;5.534;2024-02-21T02:48:43;10.60;99.60
65046;DHT22;54657;52.022;5.534;2024-02-21T02:51:10;10.60;99.60
65046;DHT22;54657;52.022;5.534;2024-02-21T02:53:35;10.60;99.60
65046;DHT22;54657;52.022;5.534;2024-02-21T02:56:01;10.70;99.60
65046;DHT22;54657;52.022;5.534;2024-02-21T02:58:26;10.70;99.50
65046;DHT22;54657;52.022;5.534;2024-02-21T03:00:52;10.70;99.50
65046;DHT22;54657;52.022;5.534;2024-02-21T03:03:18;10.70;99.50
65046;DHT22;54657;52.022;5.534;2024-02-21T03:05:43;10.60;99.60
65046;DHT22;54657;52.022;5.534;2024-02-21T03:08:09;10.70;99.60
65046;DHT22;54657;52.022;5.534;2024-02-21T03:10:35;10.70;99.60
65046;DHT22;54657;52.022;5.534;2024-02-21T03:13:01;10.60;99.60
65046;DHT22;54657;52.022;5.534;2024-02-21T03:15:26;10.60;99.60
65046;DHT22;54657;52.022;5.534;2024-02-21T03:17:52;10.60;99.70
65046;DHT22;54657;52.022;5.534;2024-02-21T03:20:17;10.60;99.70
65046;DHT22;54657;52.022;5.534;2024-02-21T03:22:45;10.60;99.70
65046;DHT22;54657;52.022;5.534;2024-02-21T03:25:10;10.60;99.80
65046;DHT22;54657;52.022;5.534;2024-02-21T03:27:36;10.60;99.70
65046;DHT22;54657;52.022;5.534;2024-02-21T03:30:02;10.60;99.60
65046;DHT22;54657;52.022;5.534;2024-02-21T03:32:28;10.50;99.60
65046;DHT22;54657;52.022;5.534;2024-02-21T03:34:56;10.50;99.60
65046;DHT22;54657;52.022;5.534;2024-02-21T03:37:22;10.50;99.60
65046;DHT22;54657;52.022;5.534;2024-02-21T03:39:47;10.50;99.70
65046;DHT22;54657;52.022;5.534;2024-02-21T03:42:13;10.50;99.60
65046;DHT22;54657;52.022;5.534;2024-02-21T03:44:38;10.50;99.60
65046;DHT22;54657;52.022;5.534;2024-02-21T03:47:04;10.50;99.60
65046;DHT22;54657;52.022;5.534;2024-02-21T03:49:30;10.50;99.70
65046;DHT22;54657;52.022;5.534;2024-02-21T03:51:56;10.50;99.60
65046;DHT22;54657;52.022;5.534;2024-02-21T03:54:21;10.50;99.60
65046;DHT22;54657;52.022;5.534;2024-02-21T03:56:47;10.50;99.60
65046;DHT22;54657;52.022;5.534;2024-02-21T03:59:15;10.50;99.50
65046;DHT22;54657;52.022;5.534;2024-02-21T04:01:41;10.50;99.60
65046;DHT22;54657;52.022;5.534;2024-02-21T04:04:06;10.50;99.60
65046;DHT22;54657;52.022;5.534;2024-02-21T04:06:32;10.50;99.60
65046;DHT22;54657;52.022;5.534;2024-02-21T04:08:58;10.50;99.60
65046;DHT22;54657;52.022;5.534;2024-02-21T04:11:24;10.50;99.60
65046;DHT22;54657;52.022;5.534;2024-02-21T04:13:50;10.40;99.90
65046;DHT22;54657;52.022;5.534;2024-02-21T04:16:16;10.50;99.60
65046;DHT22;54657;52.022;5.534;2024-02-21T04:18:42;10.50;99.60
65046;DHT22;54657;52.022;5.534;2024-02-21T04:21:09;10.50;99.80
65046;DHT22;54657;52.022;5.534;2024-02-21T04:23:34;10.50;99.60
65046;DHT22;54657;52.022;5.534;2024-02-21T04:26:00;10.50;99.50
65046;DHT22;54657;52.022;5.534;2024-02-21T04:28:25;10.50;99.50
65046;DHT22;54657;52.022;5.534;2024-02-21T04:30:51;10.50;99.50
65046;DHT22;54657;52.022;5.534;2024-02-21T04:33:16;10.50;99.40
65046;DHT22;54657;52.022;5.534;2024-02-21T04:35:42;10.50;99.50
65046;DHT22;54657;52.022;5.534;2024-02-21T04:38:07;10.50;99.50
65046;DHT22;54657;52.022;5.534;2024-02-21T04:40:33;10.50;99.40
65046;DHT22;54657;52.022;5.534;2024-02-21T04:42:59;10.50;99.40
65046;DHT22;54657;52.022;5.534;2024-02-21T04:45:24;10.50;99.40
65046;DHT22;54657;52.022;5.534;2024-02-21T04:47:50;10.50;99.50
65046;DHT22;54657;52.022;5.534;2024-02-21T04:50:15;10.50;99.40
65046;DHT22;54657;52.022;5.534;2024-02-21T04:52:41;10.50;99.50
65046;DHT22;54657;52.022;5.534;2024-02-21T04:55:07;10.50;99.50
65046;DHT22;54657;52.022;5.534;2024-02-21T04:57:33;10.50;99.50
65046;DHT22;54657;52.022;5.534;2024-02-21T04:59:58;10.50;99.50
65046;DHT22;54657;52.022;5.534;2024-02-21T05:02:24;10.50;99.50
65046;DHT22;54657;52.022;5.534;2024-02-21T05:04:50;10.50;99.50
65046;DHT22;54657;52.022;5.534;2024-02-21T05:07:16;10.50;99.40
65046;DHT22;54657;52.022;5.534;2024-02-21T05:09:45;10.60;99.50
65046;DHT22;54657;52.022;5.534;2024-02-21T05:12:11;10.60;99.40
65046;DHT22;54657;52.022;5.534;2024-02-21T05:14:37;10.60;99.40
65046;DHT22;54657;52.022;5.534;2024-02-21T05:17:03;10.60;99.40
65046;DHT22;54657;52.022;5.534;2024-02-21T05:19:29;10.60;99.40
65046;DHT22;54657;52.022;5.534;2024-02-21T05:21:54;10.60;99.30
65046;DHT22;54657;52.022;5.534;2024-02-21T05:24:20;10.60;99.40
65046;DHT22;54657;52.022;5.534;2024-02-21T05:26:45;10.50;99.40
65046;DHT22;54657;52.022;5.534;2024-02-21T05:29:11;10.50;99.50
65046;DHT22;54657;52.022;5.534;2024-02-21T05:32:03;10.40;99.50
65046;DHT22;54657;52.022;5.534;2024-02-21T05:34:29;10.50;99.40
65046;DHT22;54657;52.022;5.534;2024-02-21T05:36:54;10.40;99.70
65046;DHT22;54657;52.022;5.534;2024-02-21T05:39:20;10.40;99.70
65046;DHT22;54657;52.022;5.534;2024-02-21T05:41:48;10.40;99.70
65046;DHT22;54657;52.022;5.534;2024-02-21T05:44:13;10.40;99.60
65046;DHT22;54657;52.022;5.534;2024-02-21T05:46:39;10.40;99.60
65046;DHT22;54657;52.022;5.534;2024-02-21T05:49:05;10.40;99.70
65046;DHT22;54657;52.022;5.534;2024-02-21T05:51:34;10.30;99.70
65046;DHT22;54657;52.022;5.534;2024-02-21T05:54:00;10.40;99.60
65046;DHT22;54657;52.022;5.534;2024-02-21T05:56:25;10.40;99.60
65046;DHT22;54657;52.022;5.534;2024-02-21T05:58:51;10.40;99.60
65046;DHT22;54657;52.022;5.534;2024-02-21T06:01:16;10.40;99.60
65046;DHT22;54657;52.022;5.534;2024-02-21T06:03:43;10.40;99.60
65046;DHT22;54657;52.022;5.534;2024-02-21T06:06:08;10.30;99.70
65046;DHT22;54657;52.022;5.534;2024-02-21T06:08:34;10.30;99.70
65046;DHT22;54657;52.022;5.534;2024-02-21T06:11:00;10.30;99.70
65046;DHT22;54657;52.022;5.534;2024-02-21T06:13:25;10.30;99.80
65046;DHT22;54657;52.022;5.534;2024-02-21T06:15:51;10.20;99.80
65046;DHT22;54657;52.022;5.534;2024-02-21T06:18:17;10.20;99.90
65046;DHT22;54657;52.022;5.534;2024-02-21T06:20:43;10.20;99.90
65046;DHT22;54657;52.022;5.534;2024-02-21T06:23:09;10.20;99.90
65046;DHT22;54657;52.022;5.534;2024-02-21T06:25:35;10.20;99.90
65046;DHT22;54657;52.022;5.534;2024-02-21T06:28:00;10.20;99.90
65046;DHT22;54657;52.022;5.534;2024-02-21T06:30:26;10.20;99.90
65046;DHT22;54657;52.022;5.534;2024-02-21T06:32:52;10.20;99.80
65046;DHT22;54657;52.022;5.534;2024-02-21T06:35:19;10.20;99.90
65046;DHT22;54657;52.022;5.534;2024-02-21T06:37:44;10.20;99.80
65046;DHT22;54657;52.022;5.534;2024-02-21T06:40:16;10.20;99.80
65046;DHT22;54657;52.022;5.534;2024-02-21T06:42:41;10.10;99.80
65046;DHT22;54657;52.022;5.534;2024-02-21T06:45:07;10.10;99.90
65046;DHT22;54657;52.022;5.534;2024-02-21T06:47:32;10.10;99.80
65046;DHT22;54657;52.022;5.534;2024-02-21T06:49:58;10.10;99.90
65046;DHT22;54657;52.022;5.534;2024-02-21T06:52:23;10.10;99.90
65046;DHT22;54657;52.022;5.534;2024-02-21T06:54:50;10.10;99.90
65046;DHT22;54657;52.022;5.534;2024-02-21T06:57:15;10.10;99.80
65046;DHT22;54657;52.022;5.534;2024-02-21T06:59:41;10.10;99.90
65046;DHT22;54657;52.022;5.534;2024-02-21T07:02:07;10.10;99.80
65046;DHT22;54657;52.022;5.534;2024-02-21T07:04:33;10.10;99.90
65046;DHT22;54657;52.022;5.534;2024-02-21T07:06:59;10.10;99.80
65046;DHT22;54657;52.022;5.534;2024-02-21T07:09:25;10.00;99.80
65046;DHT22;54657;52.022;5.534;2024-02-21T07:11:50;10.10;99.80
65046;DHT22;54657;52.022;5.534;2024-02-21T07:14:16;10.10;99.80
65046;DHT22;54657;52.022;5.534;2024-02-21T07:16:41;10.10;99.80
65046;DHT22;54657;52.022;5.534;2024-02-21T07:19:07;10.10;99.70
65046;DHT22;54657;52.022;5.534;2024-02-21T07:21:33;10.10;99.70
65046;DHT22;54657;52.022;5.534;2024-02-21T07:23:58;10.10;99.80
65046;DHT22;54657;52.022;5.534;2024-02-21T07:26:24;10.10;99.80
65046;DHT22;54657;52.022;5.534;2024-02-21T07:28:50;10.10;99.70
65046;DHT22;54657;52.022;5.534;2024-02-21T07:31:15;10.10;99.70
65046;DHT22;54657;52.022;5.534;2024-02-21T07:33:41;10.10;99.70
65046;DHT22;54657;52.022;5.534;2024-02-21T07:36:09;10.10;99.70
65046;DHT22;54657;52.022;5.534;2024-02-21T07:38:35;10.00;99.70
65046;DHT22;54657;52.022;5.534;2024-02-21T07:41:00;10.10;99.70
65046;DHT22;54657;52.022;5.534;2024-02-21T07:43:26;10.10;99.70
65046;DHT22;54657;52.022;5.534;2024-02-21T07:45:52;10.10;99.60
65046;DHT22;54657;52.022;5.534;2024-02-21T07:48:21;10.10;99.60
65046;DHT22;54657;52.022;5.534;2024-02-21T07:50:50;10.20;99.60
65046;DHT22;54657;52.022;5.534;2024-02-21T07:53:16;10.10;99.60
65046;DHT22;54657;52.022;5.534;2024-02-21T07:55:41;10.10;99.60
65046;DHT22;54657;52.022;5.534;2024-02-21T07:58:07;10.20;99.50
65046;DHT22;54657;52.022;5.534;2024-02-21T08:00:33;10.20;99.40
65046;DHT22;54657;52.022;5.534;2024-02-21T08:02:58;10.20;99.40
65046;DHT22;54657;52.022;5.534;2024-02-21T08:05:24;10.30;99.40
65046;DHT22;54657;52.022;5.534;2024-02-21T08:07:50;10.40;99.30
65046;DHT22;54657;52.022;5.534;2024-02-21T08:10:15;10.40;99.30
65046;DHT22;54657;52.022;5.534;2024-02-21T08:12:41;10.40;99.30
65046;DHT22;54657;52.022;5.534;2024-02-21T08:15:07;10.40;99.40
65046;DHT22;54657;52.022;5.534;2024-02-21T08:17:36;10.40;99.30
65046;DHT22;54657;52.022;5.534;2024-02-21T08:20:01;10.40;99.40
65046;DHT22;54657;52.022;5.534;2024-02-21T08:22:28;10.40;99.30
65046;DHT22;54657;52.022;5.534;2024-02-21T08:24:53;10.40;99.30
65046;DHT22;54657;52.022;5.534;2024-02-21T08:27:19;10.40;99.40
65046;DHT22;54657;52.022;5.534;2024-02-21T08:29:44;10.40;99.40
65046;DHT22;54657;52.022;5.534;2024-02-21T08:32:10;10.40;99.70
65046;DHT22;54657;52.022;5.534;2024-02-21T08:34:36;10.40;99.40
65046;DHT22;54657;52.022;5.534;2024-02-21T08:37:01;10.40;99.40
65046;DHT22;54657;52.022;5.534;2024-02-21T08:39:27;10.40;99.30
65046;DHT22;54657;52.022;5.534;2024-02-21T08:41:54;10.40;99.30
65046;DHT22;54657;52.022;5.534;2024-02-21T08:44:19;10.50;99.20
65046;DHT22;54657;52.022;5.534;2024-02-21T08:46:45;10.50;99.10
65046;DHT22;54657;52.022;5.534;2024-02-21T08:49:12;10.50;99.20
65046;DHT22;54657;52.022;5.534;2024-02-21T08:51:39;10.40;99.10
65046;DHT22;54657;52.022;5.534;2024-02-21T08:54:04;10.40;99.10
65046;DHT22;54657;52.022;5.534;2024-02-21T08:56:30;10.40;99.10
65046;DHT22;54657;52.022;5.534;2024-02-21T08:58:56;10.40;99.10
65046;DHT22;54657;52.022;5.534;2024-02-21T09:01:23;10.40;99.20
65046;DHT22;54657;52.022;5.534;2024-02-21T09:03:48;10.40;99.10
65046;DHT22;54657;52.022;5.534;2024-02-21T09:06:19;10.40;99.10
65046;DHT22;54657;52.022;5.534;2024-02-21T09:08:45;10.40;99.00
65046;DHT22;54657;52.022;5.534;2024-02-21T09:11:11;10.50;99.00
65046;DHT22;54657;52.022;5.534;2024-02-21T09:13:36;10.40;98.90
65046;DHT22;54657;52.022;5.534;2024-02-21T09:16:02;10.50;98.90
65046;DHT22;54657;52.022;5.534;2024-02-21T09:18:28;10.40;98.90
65046;DHT22;54657;52.022;5.534;2024-02-21T09:20:54;10.40;98.90
65046;DHT22;54657;52.022;5.534;2024-02-21T09:23:19;10.40;99.00
65046;DHT22;54657;52.022;5.534;2024-02-21T09:25:45;10.50;98.90
65046;DHT22;54657;52.022;5.534;2024-02-21T09:28:11;10.60;98.90
65046;DHT22;54657;52.022;5.534;2024-02-21T09:30:38;10.60;98.70
65046;DHT22;54657;52.022;5.534;2024-02-21T09:33:04;10.60;98.70
65046;DHT22;54657;52.022;5.534;2024-02-21T09:35:30;10.60;98.70
65046;DHT22;54657;52.022;5.534;2024-02-21T09:37:56;10.60;98.60
65046;DHT22;54657;52.022;5.534;2024-02-21T09:40:22;10.60;98.60
65046;DHT22;54657;52.022;5.534;2024-02-21T09:42:48;10.60;98.50
65046;DHT22;54657;52.022;5.534;2024-02-21T09:45:23;10.60;98.50
65046;DHT22;54657;52.022;5.534;2024-02-21T09:50:34;10.70;98.50
65046;DHT22;54657;52.022;5.534;2024-02-21T09:53:02;10.80;98.50
65046;DHT22;54657;52.022;5.534;2024-02-21T09:55:31;10.70;98.00
65046;DHT22;54657;52.022;5.534;2024-02-21T09:58:01;10.80;98.40
65046;DHT22;54657;52.022;5.534;2024-02-21T10:00:27;10.80;98.30
65046;DHT22;54657;52.022;5.534;2024-02-21T10:02:53;10.80;98.30
65046;DHT22;54657;52.022;5.534;2024-02-21T10:05:19;10.90;98.10
65046;DHT22;54657;52.022;5.534;2024-02-21T10:07:45;10.90;98.10
65046;DHT22;54657;52.022;5.534;2024-02-21T10:10:11;10.90;98.10
65046;DHT22;54657;52.022;5.534;2024-02-21T10:12:36;10.90;97.90
65046;DHT22;54657;52.022;5.534;2024-02-21T10:15:06;10.90;97.80
65046;DHT22;54657;52.022;5.534;2024-02-21T10:17:35;11.00;98.00
65046;DHT22;54657;52.022;5.534;2024-02-21T10:20:11;11.00;97.70
65046;DHT22;54657;52.022;5.534;2024-02-21T10:22:38;11.00;97.20
65046;DHT22;54657;52.022;5.534;2024-02-21T10:25:12;11.00;97.70
65046;DHT22;54657;52.022;5.534;2024-02-21T10:27:38;11.10;97.60
65046;DHT22;54657;52.022;5.534;2024-02-21T10:30:14;11.10;97.70
65046;DHT22;54657;52.022;5.534;2024-02-21T10:32:51;11.10;97.50
65046;DHT22;54657;52.022;5.534;2024-02-21T10:35:26;11.10;97.80
65046;DHT22;54657;52.022;5.534;2024-02-21T10:37:52;11.20;97.60
65046;DHT22;54657;52.022;5.534;2024-02-21T10:40:24;11.20;97.80
65046;DHT22;54657;52.022;5.534;2024-02-21T10:42:59;11.20;97.80
65046;DHT22;54657;52.022;5.534;2024-02-21T10:47:56;11.10;97.90
65046;DHT22;54657;52.022;5.534;2024-02-21T10:50:25;11.10;98.00
65046;DHT22;54657;52.022;5.534;2024-02-21T10:53:20;11.10;98.10
65046;DHT22;54657;52.022;5.534;2024-02-21T10:55:58;11.10;98.00
65046;DHT22;54657;52.022;5.534;2024-02-21T10:58:28;11.20;98.10
65046;DHT22;54657;52.022;5.534;2024-02-21T11:00:55;11.20;98.20
65046;DHT22;54657;52.022;5.534;2024-02-21T11:03:21;11.30;98.20
65046;DHT22;54657;52.022;5.534;2024-02-21T11:05:47;11.30;98.20
65046;DHT22;54657;52.022;5.534;2024-02-21T11:08:13;11.30;98.10
65046;DHT22;54657;52.022;5.534;2024-02-21T11:10:39;11.30;98.10
65046;DHT22;54657;52.022;5.534;2024-02-21T11:13:09;11.30;98.10
65046;DHT22;54657;52.022;5.534;2024-02-21T11:15:35;11.30;98.20
65046;DHT22;54657;52.022;5.534;2024-02-21T11:18:00;11.30;98.10
65046;DHT22;54657;52.022;5.534;2024-02-21T11:20:37;11.20;98.10
65046;DHT22;54657;52.022;5.534;2024-02-21T11:23:02;11.10;98.00
65046;DHT22;54657;52.022;5.534;2024-02-21T11:25:29;11.10;98.30
65046;DHT22;54657;52.022;5.534;2024-02-21T11:28:02;11.00;98.30
65046;DHT22;54657;52.022;5.534;2024-02-21T11:30:32;11.00;98.40
65046;DHT22;54657;52.022;5.534;2024-02-21T11:33:02;11.10;98.40
65046;DHT22;54657;52.022;5.534;2024-02-21T11:35:35;11.10;98.00
65046;DHT22;54657;52.022;5.534;2024-02-21T11:38:10;10.90;98.00
65046;DHT22;54657;52.022;5.534;2024-02-21T11:40:39;10.90;97.90
65046;DHT22;54657;52.022;5.534;2024-02-21T11:43:07;10.90;98.40
65046;DHT22;54657;52.022;5.534;2024-02-21T11:45:33;10.90;98.40
65046;DHT22;54657;52.022;5.534;2024-02-21T11:47:59;11.00;98.40
65046;DHT22;54657;52.022;5.534;2024-02-21T11:50:29;11.00;98.20
65046;DHT22;54657;52.022;5.534;2024-02-21T11:52:56;10.90;98.10
65046;DHT22;54657;52.022;5.534;2024-02-21T11:55:24;10.90;98.10
65046;DHT22;54657;52.022;5.534;2024-02-21T11:57:50;10.90;98.10
65046;DHT22;54657;52.022;5.534;2024-02-21T12:00:17;10.90;98.10
65046;DHT22;54657;52.022;5.534;2024-02-21T12:02:43;10.90;98.10
65046;DHT22;54657;52.022;5.534;2024-02-21T12:05:10;10.90;98.00
65046;DHT22;54657;52.022;5.534;2024-02-21T12:07:40;11.10;98.10
65046;DHT22;54657;52.022;5.534;2024-02-21T12:10:09;11.20;97.90
65046;DHT22;54657;52.022;5.534;2024-02-21T12:12:36;11.20;97.70
65046;DHT22;54657;52.022;5.534;2024-02-21T12:15:03;11.20;97.40
65046;DHT22;54657;52.022;5.534;2024-02-21T12:17:33;11.30;97.50
65046;DHT22;54657;52.022;5.534;2024-02-21T12:19:59;11.40;97.60
65046;DHT22;54657;52.022;5.534;2024-02-21T12:22:25;11.40;97.30
65046;DHT22;54657;52.022;5.534;2024-02-21T12:24:50;11.50;97.40
65046;DHT22;54657;52.022;5.534;2024-02-21T12:27:16;11.60;97.30
65046;DHT22;54657;52.022;5.534;2024-02-21T12:29:42;11.70;97.20
65046;DHT22;54657;52.022;5.534;2024-02-21T12:32:07;11.70;97.10
65046;DHT22;54657;52.022;5.534;2024-02-21T12:34:33;11.70;97.10
65046;DHT22;54657;52.022;5.534;2024-02-21T12:36:59;11.60;97.00
65046;DHT22;54657;52.022;5.534;2024-02-21T12:39:24;11.60;96.90
65046;DHT22;54657;52.022;5.534;2024-02-21T12:41:52;11.70;96.90
65046;DHT22;54657;52.022;5.534;2024-02-21T12:44:18;11.70;97.00
65046;DHT22;54657;52.022;5.534;2024-02-21T12:46:44;11.70;97.00
65046;DHT22;54657;52.022;5.534;2024-02-21T12:49:10;11.70;97.00
65046;DHT22;54657;52.022;5.534;2024-02-21T12:51:36;11.70;97.00
65046;DHT22;54657;52.022;5.534;2024-02-21T12:54:02;11.70;96.80
65046;DHT22;54657;52.022;5.534;2024-02-21T12:56:30;11.80;96.70
65046;DHT22;54657;52.022;5.534;2024-02-21T12:58:57;11.80;96.80
65046;DHT22;54657;52.022;5.534;2024-02-21T13:01:22;11.80;96.80
65046;DHT22;54657;52.022;5.534;2024-02-21T13:03:48;11.80;96.60
65046;DHT22;54657;52.022;5.534;2024-02-21T13:06:13;11.80;96.60
65046;DHT22;54657;52.022;5.534;2024-02-21T13:08:39;11.90;96.60
65046;DHT22;54657;52.022;5.534;2024-02-21T13:11:06;11.90;96.60
65046;DHT22;54657;52.022;5.534;2024-02-21T13:13:32;11.90;96.40
65046;DHT22;54657;52.022;5.534;2024-02-21T13:15:58;12.00;96.50
65046;DHT22;54657;52.022;5.534;2024-02-21T13:18:24;12.00;96.30
65046;DHT22;54657;52.022;5.534;2024-02-21T13:20:50;12.00;96.40
65046;DHT22;54657;52.022;5.534;2024-02-21T13:23:15;12.00;96.20
65046;DHT22;54657;52.022;5.534;2024-02-21T13:25:41;12.00;96.30
65046;DHT22;54657;52.022;5.534;2024-02-21T13:28:06;12.00;96.40
65046;DHT22;54657;52.022;5.534;2024-02-21T13:30:32;12.00;96.20
65046;DHT22;54657;52.022;5.534;2024-02-21T13:32:58;11.90;96.10
65046;DHT22;54657;52.022;5.534;2024-02-21T13:35:23;11.90;96.10
65046;DHT22;54657;52.022;5.534;2024-02-21T13:37:49;11.90;96.10
65046;DHT22;54657;52.022;5.534;2024-02-21T13:40:15;12.00;96.40
65046;DHT22;54657;52.022;5.534;2024-02-21T13:42:41;12.00;96.40
65046;DHT22;54657;52.022;5.534;2024-02-21T13:45:08;12.00;96.10
65046;DHT22;54657;52.022;5.534;2024-02-21T13:47:34;12.00;96.00
65046;DHT22;54657;52.022;5.534;2024-02-21T13:50:02;12.00;96.10
65046;DHT22;54657;52.022;5.534;2024-02-21T13:52:30;12.00;96.20
65046;DHT22;54657;52.022;5.534;2024-02-21T13:54:55;12.00;96.00
65046;DHT22;54657;52.022;5.534;2024-02-21T13:57:21;12.00;96.00
65046;DHT22;54657;52.022;5.534;2024-02-21T13:59:46;11.90;95.90
65046;DHT22;54657;52.022;5.534;2024-02-21T14:02:12;12.00;95.90
65046;DHT22;54657;52.022;5.534;2024-02-21T14:04:38;12.00;95.70
65046;DHT22;54657;52.022;5.534;2024-02-21T14:07:04;11.90;95.60
65046;DHT22;54657;52.022;5.534;2024-02-21T14:09:30;11.90;95.60
65046;DHT22;54657;52.022;5.534;2024-02-21T14:11:56;11.90;95.60
65046;DHT22;54657;52.022;5.534;2024-02-21T14:14:21;11.90;95.70
65046;DHT22;54657;52.022;5.534;2024-02-21T14:16:47;12.00;95.70
65046;DHT22;54657;52.022;5.534;2024-02-21T14:19:13;11.90;95.40
65046;DHT22;54657;52.022;5.534;2024-02-21T14:21:39;11.90;95.50
65046;DHT22;54657;52.022;5.534;2024-02-21T14:24:05;11.90;95.30
65046;DHT22;54657;52.022;5.534;2024-02-21T14:26:31;11.90;95.50
65046;DHT22;54657;52.022;5.534;2024-02-21T14:28:57;11.90;95.20
65046;DHT22;54657;52.022;5.534;2024-02-21T14:31:23;11.90;95.40
65046;DHT22;54657;52.022;5.534;2024-02-21T14:33:49;12.00;95.30
65046;DHT22;54657;52.022;5.534;2024-02-21T14:36:15;12.00;95.20
65046;DHT22;54657;52.022;5.534;2024-02-21T14:38:44;11.90;94.90
65046;DHT22;54657;52.022;5.534;2024-02-21T14:41:10;11.90;95.20
65046;DHT22;54657;52.022;5.534;2024-02-21T14:43:38;11.90;95.00
65046;DHT22;54657;52.022;5.534;2024-02-21T14:46:04;11.90;95.00
65046;DHT22;54657;52.022;5.534;2024-02-21T14:48:31;11.90;95.00
65046;DHT22;54657;52.022;5.534;2024-02-21T14:50:57;11.90;95.00
65046;DHT22;54657;52.022;5.534;2024-02-21T14:53:23;11.90;95.10
65046;DHT22;54657;52.022;5.534;2024-02-21T14:55:49;11.70;94.80
65046;DHT22;54657;52.022;5.534;2024-02-21T14:58:15;11.70;95.10
65046;DHT22;54657;52.022;5.534;2024-02-21T15:00:43;11.70;95.20
65046;DHT22;54657;52.022;5.534;2024-02-21T15:03:09;11.60;95.10
65046;DHT22;54657;52.022;5.534;2024-02-21T15:05:36;11.60;95.30
65046;DHT22;54657;52.022;5.534;2024-02-21T15:08:03;11.60;95.60
65046;DHT22;54657;52.022;5.534;2024-02-21T15:10:28;11.50;95.50
65046;DHT22;54657;52.022;5.534;2024-02-21T15:12:54;11.40;95.80
65046;DHT22;54657;52.022;5.534;2024-02-21T15:15:20;11.50;96.00
65046;DHT22;54657;52.022;5.534;2024-02-21T15:17:45;11.40;96.00
65046;DHT22;54657;52.022;5.534;2024-02-21T15:20:11;11.40;96.20
65046;DHT22;54657;52.022;5.534;2024-02-21T15:22:37;11.20;96.30
65046;DHT22;54657;52.022;5.534;2024-02-21T15:25:03;11.20;96.60
65046;DHT22;54657;52.022;5.534;2024-02-21T15:27:31;11.30;96.70
65046;DHT22;54657;52.022;5.534;2024-02-21T15:29:57;11.30;96.70